createdAt,value
2017-12-12T05:35:26.957Z,13.33
2017-12-12T05:37:58.826Z,16.77
2017-12-12T05:40:30.695Z,13.70
2017-12-12T05:43:02.581Z,13.50
2017-12-12T05:45:34.442Z,13.17
2017-12-12T05:48:06.336Z,16.10
2017-12-12T05:50:38.971Z,12.70
2017-12-12T05:53:10.863Z,15.97
2017-12-12T05:55:42.741Z,17.57
2017-12-12T05:58:15.414Z,18.33
2017-12-12T06:00:48.044Z,18.57
2017-12-12T06:03:19.938Z,17.70
2017-12-12T06:05:51.991Z,22.70
2017-12-12T06:08:23.887Z,22.43
2017-12-12T06:10:55.761Z,21.67
2017-12-12T06:13:27.658Z,19.33
2017-12-12T06:15:59.523Z,19.17
2017-12-12T06:18:31.419Z,16.07
2017-12-12T06:21:04.105Z,22.07
2017-12-12T06:23:36.765Z,23.47
2017-12-12T06:26:09.395Z,20.43
2017-12-12T06:28:41.303Z,16.30
2017-12-12T06:31:13.959Z,20.90
2017-12-12T06:33:45.857Z,19.10
2017-12-12T06:36:18.492Z,20.20
2017-12-12T06:38:50.380Z,17.77
2017-12-12T06:41:23.016Z,17.93
2017-12-12T06:43:54.904Z,19.67
2017-12-12T06:46:26.797Z,17.30
2017-12-12T06:48:59.444Z,16.93
2017-12-12T06:51:31.364Z,19.83
2017-12-12T06:54:03.283Z,22.03
2017-12-12T06:56:35.920Z,24.57
2017-12-12T06:59:07.884Z,18.73
2017-12-12T07:01:39.848Z,23.70
2017-12-12T07:04:11.745Z,18.37
2017-12-12T07:06:44.388Z,22.90
2017-12-12T07:09:16.283Z,18.90
2017-12-12T07:11:48.915Z,16.53
2017-12-12T07:14:21.084Z,18.37
2017-12-12T07:16:52.960Z,19.00
2017-12-12T07:19:24.857Z,14.83
2017-12-12T07:21:57.491Z,18.90
2017-12-12T07:24:29.387Z,16.70
2017-12-12T07:27:02.015Z,16.97
2017-12-12T07:29:33.912Z,15.70
2017-12-12T07:32:05.839Z,17.73
2017-12-12T07:34:37.761Z,15.07
2017-12-12T07:37:10.389Z,17.40
2017-12-12T07:39:42.288Z,21.20
2017-12-12T07:42:14.929Z,20.43
2017-12-12T07:44:46.833Z,24.10
2017-12-12T07:47:19.460Z,16.10
2017-12-12T07:49:51.365Z,18.20
2017-12-12T07:52:24.000Z,20.33
2017-12-12T07:54:55.900Z,17.13
2017-12-12T07:57:28.539Z,16.60
2017-12-12T08:00:00.504Z,19.07
2017-12-12T08:02:32.487Z,15.33
2017-12-12T08:05:04.419Z,13.20
2017-12-12T08:07:36.287Z,14.13
2017-12-12T08:10:08.181Z,15.47
2017-12-12T08:12:40.823Z,12.43
2017-12-12T08:15:12.709Z,17.23
2017-12-12T08:17:44.578Z,11.60
2017-12-12T08:20:17.479Z,14.50
2017-12-12T08:22:49.356Z,14.50
2017-12-12T08:25:21.248Z,15.43
2017-12-12T08:27:53.119Z,13.90
2017-12-12T08:30:25.011Z,15.53
2017-12-12T08:32:57.643Z,16.30
2017-12-12T08:35:29.550Z,15.20
2017-12-12T08:38:02.177Z,16.43
2017-12-12T08:40:34.071Z,13.70
2017-12-12T08:43:05.935Z,11.70
2017-12-12T08:45:38.592Z,17.43
2017-12-12T08:48:10.464Z,14.17
2017-12-12T08:50:42.361Z,14.00
2017-12-12T08:53:14.240Z,14.10
2017-12-12T08:55:46.137Z,16.37
2017-12-12T08:58:18.012Z,14.97
2017-12-12T09:00:50.668Z,12.03
2017-12-12T09:03:22.540Z,14.53
2017-12-12T09:05:54.441Z,16.30
2017-12-12T09:08:26.307Z,15.60
2017-12-12T09:10:58.204Z,15.37
2017-12-12T09:13:30.077Z,17.27
2017-12-12T09:16:01.968Z,14.90
2017-12-12T09:18:34.605Z,12.97
2017-12-12T09:21:06.500Z,12.40
2017-12-12T09:23:39.187Z,12.70
2017-12-12T09:26:11.840Z,10.87
2017-12-12T09:28:43.712Z,16.53
2017-12-12T09:31:16.377Z,12.63
2017-12-12T09:33:48.240Z,15.03
2017-12-12T09:36:20.131Z,14.03
2017-12-12T09:38:51.997Z,9.70
2017-12-12T09:41:23.895Z,14.13
2017-12-12T09:43:55.763Z,10.47
2017-12-12T09:46:27.652Z,9.87
2017-12-12T09:49:00.280Z,16.90
2017-12-12T09:51:32.168Z,11.00
2017-12-12T09:54:04.027Z,9.87
2017-12-12T09:56:35.941Z,14.37
2017-12-12T09:59:07.800Z,10.37
2017-12-12T10:01:39.687Z,14.77
2017-12-12T10:04:11.566Z,12.60
2017-12-12T10:06:43.456Z,12.70
2017-12-12T10:09:16.087Z,10.50
2017-12-12T10:11:47.976Z,11.03
2017-12-12T10:14:19.838Z,9.33
2017-12-12T10:16:52.498Z,13.47
2017-12-12T10:19:24.375Z,15.00
2017-12-12T10:21:56.263Z,10.30
2017-12-12T10:24:28.123Z,14.60
2017-12-12T10:27:00.016Z,14.93
2017-12-12T10:29:31.904Z,13.07
2017-12-12T10:32:03.795Z,9.53
2017-12-12T10:34:35.659Z,9.10
2017-12-12T10:37:07.560Z,12.10
2017-12-12T10:39:39.442Z,10.37
2017-12-12T10:42:11.344Z,10.77
2017-12-12T10:44:43.215Z,15.13
2017-12-12T10:47:15.114Z,10.37
2017-12-12T10:49:46.975Z,11.40
2017-12-12T10:52:18.876Z,10.67
2017-12-12T10:54:50.745Z,9.97
2017-12-12T10:57:22.639Z,9.87
2017-12-12T10:59:54.511Z,9.10
2017-12-12T11:02:26.401Z,14.13
2017-12-12T11:04:59.028Z,13.10
2017-12-12T11:07:30.920Z,10.50
2017-12-12T11:10:02.787Z,11.87
2017-12-12T11:12:34.692Z,12.77
2017-12-12T11:15:06.556Z,11.77
2017-12-12T11:17:38.456Z,9.33
2017-12-12T11:20:10.340Z,10.33
2017-12-12T11:22:43.005Z,13.67
2017-12-12T11:25:14.873Z,13.03
2017-12-12T11:27:47.535Z,12.30
2017-12-12T11:30:19.425Z,10.63
2017-12-12T11:32:52.315Z,8.83
2017-12-12T11:35:24.189Z,10.53
2017-12-12T11:37:56.072Z,8.97
2017-12-12T11:40:27.932Z,11.13
2017-12-12T11:42:59.823Z,10.73
2017-12-12T11:45:31.695Z,11.17
2017-12-12T11:48:04.368Z,8.80
2017-12-12T11:50:36.231Z,7.90
2017-12-12T11:53:08.883Z,9.13
2017-12-12T11:55:42.272Z,11.83
2017-12-12T11:58:14.187Z,9.50
2017-12-12T12:00:46.808Z,7.77
2017-12-12T12:03:18.704Z,9.60
2017-12-12T12:05:51.608Z,10.20
2017-12-12T12:08:24.263Z,12.60
2017-12-12T12:10:56.146Z,9.73
2017-12-12T12:13:29.031Z,8.77
2017-12-12T12:16:00.892Z,9.30
2017-12-12T12:18:32.788Z,9.10
2017-12-12T12:21:05.420Z,9.27
2017-12-12T12:23:38.065Z,8.93
2017-12-12T12:26:09.929Z,7.43
2017-12-12T12:28:41.828Z,9.33
2017-12-12T12:31:13.708Z,10.70
2017-12-12T12:33:45.618Z,7.77
2017-12-12T12:36:17.487Z,10.27
2017-12-12T12:38:50.144Z,7.53
2017-12-12T12:41:22.013Z,8.00
2017-12-12T12:43:53.912Z,10.70
2017-12-12T12:46:25.776Z,8.40
2017-12-12T12:48:57.655Z,8.20
2017-12-12T12:51:29.532Z,7.60
2017-12-12T12:54:01.424Z,5.03
2017-12-12T12:56:33.300Z,6.23
2017-12-12T12:59:05.953Z,4.90
2017-12-12T13:01:37.820Z,5.50
2017-12-12T13:04:09.719Z,4.50
2017-12-12T13:06:41.588Z,5.13
2017-12-12T13:09:13.476Z,6.27
2017-12-12T13:11:45.352Z,4.97
2017-12-12T13:14:17.256Z,4.90
2017-12-12T13:16:49.120Z,4.23
2017-12-12T13:19:21.016Z,5.13
2017-12-12T13:21:52.883Z,4.67
2017-12-12T13:24:24.763Z,3.40
2017-12-12T13:26:57.396Z,4.33
2017-12-12T13:29:29.292Z,6.00
2017-12-12T13:32:02.669Z,5.13
2017-12-12T13:34:34.551Z,4.37
2017-12-12T13:37:06.421Z,5.23
2017-12-12T13:39:39.080Z,6.37
2017-12-12T13:42:10.952Z,5.23
2017-12-12T13:44:42.843Z,4.13
2017-12-12T13:47:14.712Z,6.30
2017-12-12T13:49:46.592Z,4.53
2017-12-12T13:52:18.463Z,5.10
2017-12-12T13:54:50.364Z,5.40
2017-12-12T13:57:22.991Z,7.67
2017-12-12T13:59:54.888Z,7.37
2017-12-12T14:02:26.770Z,6.40
2017-12-12T14:04:59.432Z,5.73
2017-12-12T14:07:32.064Z,5.90
2017-12-12T14:10:03.955Z,7.20
2017-12-12T14:12:35.824Z,7.33
2017-12-12T14:15:07.700Z,7.23
2017-12-12T14:17:40.340Z,9.50
2017-12-12T14:20:12.223Z,6.17
2017-12-12T14:22:44.091Z,11.63
2017-12-12T14:25:16.747Z,8.43
2017-12-12T14:27:48.619Z,8.70
2017-12-12T14:30:20.512Z,9.00
2017-12-12T14:32:52.376Z,9.50
2017-12-12T14:35:24.267Z,8.93
2017-12-12T14:37:56.127Z,7.37
2017-12-12T14:40:28.022Z,9.80
2017-12-12T14:43:00.677Z,8.83
2017-12-12T14:45:32.575Z,8.67
2017-12-12T14:48:05.205Z,10.63
2017-12-12T14:50:37.084Z,9.33
2017-12-12T14:53:08.956Z,11.60
2017-12-12T14:55:40.851Z,7.73
2017-12-12T14:58:12.724Z,9.90
2017-12-12T15:00:44.619Z,8.57
2017-12-12T15:03:16.500Z,8.93
2017-12-12T15:05:48.391Z,9.50
2017-12-12T15:08:20.272Z,7.97
2017-12-12T15:10:52.148Z,7.90
2017-12-12T15:13:24.267Z,7.87
2017-12-12T15:15:56.164Z,8.93
2017-12-12T15:18:28.065Z,7.67
2017-12-12T15:21:00.705Z,8.60
2017-12-12T15:23:32.567Z,9.87
2017-12-12T15:26:04.465Z,9.60
2017-12-12T15:28:36.336Z,9.77
2017-12-12T15:31:08.984Z,10.57
2017-12-12T15:33:40.851Z,9.23
2017-12-12T15:36:12.748Z,9.00
2017-12-12T15:38:44.620Z,11.27
2017-12-12T15:41:16.500Z,12.17
2017-12-12T15:43:48.368Z,8.87
2017-12-12T15:46:20.263Z,11.53
2017-12-12T15:48:52.136Z,8.97
2017-12-12T15:51:24.792Z,11.33
2017-12-12T15:53:56.657Z,11.27
2017-12-12T15:56:28.555Z,9.10
2017-12-12T15:59:00.425Z,9.83
2017-12-12T16:01:32.312Z,8.87
2017-12-12T16:04:04.183Z,10.20
2017-12-12T16:06:36.075Z,8.77
2017-12-12T16:09:07.965Z,10.53
2017-12-12T16:11:39.856Z,9.67
2017-12-12T16:14:11.714Z,9.63
2017-12-12T16:16:43.618Z,9.87
2017-12-12T16:19:16.252Z,10.90
2017-12-12T16:21:48.913Z,12.97
2017-12-12T16:24:20.789Z,14.50
2017-12-12T16:26:52.696Z,14.87
2017-12-12T16:29:25.334Z,16.23
2017-12-12T16:31:57.216Z,19.37
2017-12-12T16:34:29.091Z,18.70
2017-12-12T16:37:01.752Z,21.37
2017-12-12T16:39:33.623Z,21.23
2017-12-12T16:42:05.544Z,27.73
2017-12-12T16:44:37.470Z,23.40
2017-12-12T16:47:10.100Z,21.67
2017-12-12T16:49:41.969Z,23.63
2017-12-12T16:52:13.875Z,22.07
2017-12-12T16:54:45.748Z,27.70
2017-12-12T16:57:17.635Z,23.80
2017-12-12T16:59:49.499Z,25.23
2017-12-12T17:02:21.398Z,26.93
2017-12-12T17:04:54.031Z,22.73
2017-12-12T17:07:25.923Z,24.80
2017-12-12T17:09:58.560Z,28.00
2017-12-12T17:12:30.467Z,26.13
2017-12-12T17:15:03.101Z,26.33
2017-12-12T17:17:34.998Z,29.70
2017-12-12T17:20:07.632Z,24.43
2017-12-12T17:22:39.532Z,25.10
2017-12-12T17:25:12.167Z,25.77
2017-12-12T17:27:44.059Z,23.93
2017-12-12T17:30:15.935Z,26.90
2017-12-12T17:32:48.593Z,25.10
2017-12-12T17:35:20.695Z,23.73
2017-12-12T17:37:52.588Z,24.13
2017-12-12T17:40:24.471Z,25.43
2017-12-12T17:42:56.363Z,26.93
2017-12-12T17:45:29.012Z,20.73
2017-12-12T17:48:00.920Z,24.83
2017-12-12T17:50:32.795Z,27.17
2017-12-12T17:53:04.692Z,23.77
2017-12-12T17:55:36.566Z,22.83
2017-12-12T17:58:08.468Z,21.67
2017-12-12T18:00:40.335Z,24.13
2017-12-12T18:03:12.239Z,27.33
2017-12-12T18:05:44.103Z,22.70
2017-12-12T18:08:15.992Z,24.20
2017-12-12T18:10:47.874Z,28.23
2017-12-12T18:13:19.752Z,29.13
2017-12-12T18:15:51.629Z,24.50
2017-12-12T18:18:23.508Z,26.07
2017-12-12T18:20:55.390Z,28.60
2017-12-12T18:23:28.043Z,31.33
2017-12-12T18:25:59.911Z,26.30
2017-12-12T18:28:32.584Z,27.23
2017-12-12T18:31:04.452Z,26.43
2017-12-12T18:33:37.116Z,26.90
2017-12-12T18:36:08.987Z,24.73
2017-12-12T18:38:41.655Z,25.43
2017-12-12T18:41:13.532Z,27.43
2017-12-12T18:43:46.200Z,30.33
2017-12-12T18:46:18.071Z,24.67
2017-12-12T18:48:50.736Z,26.50
2017-12-12T18:51:22.599Z,23.57
2017-12-12T18:53:55.263Z,24.67
2017-12-12T18:56:27.156Z,26.17
2017-12-12T18:58:59.819Z,22.80
2017-12-12T19:01:31.690Z,24.47
2017-12-12T19:04:04.347Z,22.67
2017-12-12T19:06:36.225Z,22.23
2017-12-12T19:09:09.126Z,22.10
2017-12-12T19:11:41.004Z,23.33
2017-12-12T19:14:12.898Z,23.53
2017-12-12T19:16:44.771Z,25.63
2017-12-12T19:19:16.665Z,22.30
2017-12-12T19:21:49.307Z,24.70
2017-12-12T19:24:21.200Z,22.83
2017-12-12T19:26:53.084Z,29.57
2017-12-12T19:29:25.700Z,22.43
2017-12-12T19:31:57.573Z,21.10
2017-12-12T19:34:29.467Z,26.57
2017-12-12T19:37:02.132Z,26.97
2017-12-12T19:39:34.779Z,27.80
2017-12-12T19:42:06.665Z,27.73
2017-12-12T19:44:39.328Z,23.43
2017-12-12T19:47:11.209Z,27.87
2017-12-12T19:49:43.884Z,19.33
2017-12-12T19:52:16.529Z,19.63
2017-12-12T19:54:48.438Z,16.83
2017-12-12T19:57:20.311Z,22.23
2017-12-12T19:59:52.207Z,24.07
2017-12-12T20:02:24.074Z,21.80
2017-12-12T20:04:55.980Z,21.97
2017-12-12T20:07:27.851Z,16.43
2017-12-12T20:09:59.744Z,21.03
2017-12-12T20:12:31.616Z,18.20
2017-12-12T20:15:03.532Z,17.30
2017-12-12T20:17:35.408Z,19.33
2017-12-12T20:20:07.314Z,21.53
2017-12-12T20:22:39.421Z,17.53
2017-12-12T20:25:11.333Z,14.40
2017-12-12T20:27:43.220Z,19.03
2017-12-12T20:30:15.115Z,16.40
2017-12-12T20:32:46.984Z,17.67
2017-12-12T20:35:18.883Z,18.10
2017-12-12T20:37:51.519Z,14.70
2017-12-12T20:40:23.420Z,13.97
2017-12-12T20:42:56.060Z,18.40
2017-12-12T20:45:27.943Z,23.70
2017-12-12T20:48:00.049Z,24.30
2017-12-12T20:50:31.940Z,19.50
2017-12-12T20:53:03.808Z,15.57
2017-12-12T20:55:35.724Z,16.20
2017-12-12T20:58:07.591Z,15.00
2017-12-12T21:00:39.484Z,12.90
2017-12-12T21:03:11.356Z,12.63
2017-12-12T21:05:43.260Z,14.03
2017-12-12T21:08:15.895Z,15.90
2017-12-12T21:10:47.791Z,13.43
2017-12-12T21:13:20.428Z,14.57
2017-12-12T21:15:53.095Z,13.53
2017-12-12T21:18:25.022Z,18.93
2017-12-12T21:20:56.960Z,11.40
2017-12-12T21:23:28.864Z,10.40
2017-12-12T21:26:00.856Z,12.47
2017-12-12T21:28:32.745Z,13.70
2017-12-12T21:31:04.687Z,14.43
2017-12-12T21:33:36.559Z,10.47
2017-12-12T21:36:08.452Z,10.23
2017-12-12T21:38:40.404Z,10.57
2017-12-12T21:41:12.311Z,12.00
2017-12-12T21:43:44.184Z,12.03
2017-12-12T21:46:16.084Z,13.20
